Temp: 5.3°C   Baro: 1014.1mb
  Wind: 0.0mph   Dir: ESE (113°)
  Rain: 1.2mm (0.0mm/hr)
  Solar: 0W/m2  Hum: 94%
 
Bath Spa Weather Station Historical Data
Daily Summary for October 19, 2020 Units:  Metric    English   Both
Daily Weekly Monthly Yearly Custom
  High: Low: Average:
Temperature: 15.1 °C 7.8 °C 11.4 °C
Dew Point: 9.3 °C 6.7 °C 8.3 °C
Humidity: 90% 59.2% 79%
Wind Speed: 24.5km/h 0km/h 7.7km/h
Wind Gust: 35.4km/h - -
Wind- - SE
Pressure: 1021.2 hPa 1001.9 hPa -
Precipitation: 0 mm    
Historical Graphs
 
 
Tabular Data for October 19, 2020
Time Temperature Dew Point Pressure Wind Wind Speed Wind Gust Humidity Rainfall Rate (Hourly) solar
00:04 9.6 °C 7.8 °C 1021.2 hPa Calm     86% 0 mm 0 W/m2
00:09 9.4 °C 7.7 °C 1021.2 hPa Calm     86% 0 mm 0 W/m2
00:14 9.2 °C 7.6 °C 1021.2 hPa Calm     86% 0 mm 0 W/m2
00:19 9.2 °C 7.4 °C 1020.9 hPa ESE 1.9 km/h 4.8 km/h 86% 0 mm 0 W/m2
00:24 9.1 °C 7.4 °C 1020.9 hPa ESE 0.3 km/h 4.8 km/h 86% 0 mm 0 W/m2
00:29 9.1 °C 7.4 °C 1020.9 hPa ESE 0.3 km/h 1.6 km/h 86% 0 mm 0 W/m2
00:34 9.1 °C 7.4 °C 1020.9 hPa Calm     86.6% 0 mm 0 W/m2
00:39 9.1 °C 7.5 °C 1020.5 hPa Calm   1.6 km/h 87% 0 mm 0 W/m2
00:44 9.1 °C 7.5 °C 1020.5 hPa ESE 0.8 km/h 3.2 km/h 87% 0 mm 0 W/m2
00:49 9.2 °C 7.6 °C 1020.5 hPa ESE 1.4 km/h 3.2 km/h 87% 0 mm 0 W/m2
00:54 9.2 °C 7.6 °C 1020.5 hPa ESE 0.3 km/h 3.2 km/h 87% 0 mm 0 W/m2
00:59 9.2 °C 7.6 °C 1020.5 hPa Calm     87% 0 mm 0 W/m2
01:04 9.2 °C 7.6 °C 1020.5 hPa SSE 1 km/h 4.8 km/h 87% 0 mm 0 W/m2
01:09 9.3 °C 7.7 °C 1020.5 hPa SSE 1.9 km/h 6.4 km/h 87% 0 mm 0 W/m2
01:14 9.3 °C 7.7 °C 1020.5 hPa Calm   4.8 km/h 87% 0 mm 0 W/m2
01:19 9.3 °C 7.8 °C 1020.5 hPa SSE 0.3 km/h 1.6 km/h 87% 0 mm 0 W/m2
01:24 9.4 °C 8 °C 1020.5 hPa South 2.7 km/h 8 km/h 87.8% 0 mm 0 W/m2
01:29 9.6 °C 8.1 °C 1020.5 hPa SSE 4.8 km/h 8 km/h 87.4% 0 mm 0 W/m2
01:34 9.7 °C 8.1 °C 1020.5 hPa SSE 4 km/h 8 km/h 87% 0 mm 0 W/m2
01:39 9.7 °C 8.2 °C 1020.2 hPa SSE 2.3 km/h 6.4 km/h 87% 0 mm 0 W/m2
01:44 9.8 °C 8.2 °C 1020.5 hPa SE 3.9 km/h 8 km/h 87% 0 mm 0 W/m2
01:49 9.8 °C 8.2 °C 1020.2 hPa SSE 2.7 km/h 9.7 km/h 87% 0 mm 0 W/m2
01:54 9.8 °C 8.3 °C 1020.2 hPa SSE 4.7 km/h 9.7 km/h 87.4% 0 mm 0 W/m2
01:59 9.9 °C 8.4 °C 1020.2 hPa SE 4.8 km/h 9.7 km/h 87.8% 0 mm 0 W/m2
02:04 9.9 °C 8.5 °C 1020.2 hPa SSE 1.1 km/h 8 km/h 88% 0 mm 0 W/m2
02:09 9.9 °C 8.6 °C 1020.2 hPa SSE 2.1 km/h 4.8 km/h 88% 0 mm 0 W/m2
02:14 10 °C 8.6 °C 1020.2 hPa SSE 1.3 km/h 4.8 km/h 88% 0 mm 0 W/m2
02:19 10 °C 8.6 °C 1019.9 hPa SSE 1.9 km/h 4.8 km/h 88% 0 mm 0 W/m2
02:24 9.9 °C 8.6 °C 1019.9 hPa SSE 1 km/h 4.8 km/h 88% 0 mm 0 W/m2
02:29 10 °C 8.6 °C 1019.9 hPa SSE 3.2 km/h 6.4 km/h 88% 0 mm 0 W/m2
02:34 10 °C 8.6 °C 1019.5 hPa SSE 2.6 km/h 6.4 km/h 88% 0 mm 0 W/m2
02:39 10 °C 8.6 °C 1019.5 hPa SSE 3.5 km/h 9.7 km/h 88% 0 mm 0 W/m2
02:44 10.1 °C 8.7 °C 1019.5 hPa SSE 4.2 km/h 6.4 km/h 88% 0 mm 0 W/m2
02:49 10.1 °C 8.7 °C 1019.5 hPa SE 3.4 km/h 9.7 km/h 88% 0 mm 0 W/m2
02:54 10.1 °C 8.7 °C 1019.5 hPa SSE 3.4 km/h 8 km/h 88% 0 mm 0 W/m2
02:59 10.2 °C 8.7 °C 1019.5 hPa SSE 3.7 km/h 11.3 km/h 88% 0 mm 0 W/m2
03:04 10.2 °C 8.6 °C 1019.2 hPa SSE 4 km/h 9.7 km/h 87% 0 mm 0 W/m2
03:09 10.2 °C 8.6 °C 1019.2 hPa SSE 4.7 km/h 9.7 km/h 87% 0 mm 0 W/m2
03:14 10.2 °C 8.6 °C 1019.2 hPa SSE 2.9 km/h 6.4 km/h 87% 0 mm 0 W/m2
03:19 10.1 °C 8.5 °C 1019.2 hPa SSE 2.1 km/h 4.8 km/h 87% 0 mm 0 W/m2
03:24 10 °C 8.4 °C 1019.2 hPa SSE 2.7 km/h 4.8 km/h 87% 0 mm 0 W/m2
03:29 9.9 °C 8.3 °C 1019.2 hPa SSE 3.5 km/h 4.8 km/h 87% 0 mm 0 W/m2
03:34 9.8 °C 8.2 °C 1019.2 hPa SSE 1.8 km/h 4.8 km/h 87% 0 mm 0 W/m2
03:39 9.7 °C 8.1 °C 1018.8 hPa SSE 2.6 km/h 4.8 km/h 87% 0 mm 0 W/m2
03:44 9.6 °C 8 °C 1018.8 hPa SSE 1.6 km/h 4.8 km/h 87% 0 mm 0 W/m2
03:49 9.6 °C 7.9 °C 1018.8 hPa Calm   3.2 km/h 87% 0 mm 0 W/m2
03:54 9.3 °C 7.8 °C 1018.8 hPa SSE 0.3 km/h 1.6 km/h 87% 0 mm 0 W/m2
03:59 9.3 °C 7.7 °C 1018.8 hPa SSE 0.6 km/h 3.2 km/h 87% 0 mm 0 W/m2
04:04 9.2 °C 7.6 °C 1018.8 hPa Calm     87% 0 mm 0 W/m2
04:09 9.1 °C 7.6 °C 1018.8 hPa SSE 1.6 km/h 4.8 km/h 87.6% 0 mm 0 W/m2
04:14 9.1 °C 7.7 °C 1018.5 hPa Calm   4.8 km/h 88% 0 mm 0 W/m2
04:19 8.9 °C 7.5 °C 1018.5 hPa SSE 0.3 km/h 4.8 km/h 88% 0 mm 0 W/m2
04:24 8.8 °C 7.4 °C 1018.5 hPa SSE 0.6 km/h 3.2 km/h 88% 0 mm 0 W/m2
04:29 8.7 °C 7.3 °C 1018.5 hPa SSE 0.3 km/h 4.8 km/h 88% 0 mm 0 W/m2
04:34 8.7 °C 7.2 °C 1018.5 hPa SSE 2.6 km/h 4.8 km/h 88% 0 mm 0 W/m2
04:39 8.6 °C 7.2 °C 1018.5 hPa SE 2.7 km/h 4.8 km/h 88% 0 mm 0 W/m2
04:44 8.7 °C 7.2 °C 1018.5 hPa SE 1.6 km/h 6.4 km/h 88% 0 mm 0 W/m2
04:49 8.6 °C 7.3 °C 1018.2 hPa SE 1.3 km/h 4.8 km/h 88.6% 0 mm 0 W/m2
04:54 8.6 °C 7.4 °C 1018.2 hPa SE 2.7 km/h 6.4 km/h 89% 0 mm 0 W/m2
04:59 8.6 °C 7.4 °C 1018.2 hPa ESE 2.1 km/h 8 km/h 89% 0 mm 0 W/m2
05:04 8.6 °C 7.4 °C 1018.2 hPa ESE 2.9 km/h 6.4 km/h 89% 0 mm 0 W/m2
05:09 8.5 °C 7.3 °C 1018.2 hPa ESE 2.6 km/h 6.4 km/h 89% 0 mm 0 W/m2
05:14 8.5 °C 7.3 °C 1017.8 hPa ESE 2.6 km/h 6.4 km/h 89% 0 mm 0 W/m2
05:19 8.5 °C 7.3 °C 1017.8 hPa ESE 2.3 km/h 6.4 km/h 89% 0 mm 0 W/m2
05:24 8.5 °C 7.3 °C 1018.2 hPa ESE 0.3 km/h 4.8 km/h 89% 0 mm 0 W/m2
05:29 8.4 °C 7.2 °C 1018.2 hPa ESE 0.3 km/h 3.2 km/h 89% 0 mm 0 W/m2
05:33 8.4 °C 7.2 °C 1017.8 hPa Calm   3.2 km/h 89% 0 mm 0 W/m2
05:39 8.4 °C 7.2 °C 1017.8 hPa ESE 1.3 km/h 4.8 km/h 89% 0 mm 0 W/m2
05:44 8.3 °C 7.2 °C 1017.8 hPa ESE 1.3 km/h 4.8 km/h 89% 0 mm 0 W/m2
05:49 8.3 °C 7.1 °C 1017.8 hPa Calm   1.6 km/h 89% 0 mm 0 W/m2
05:54 8.3 °C 7.1 °C 1017.8 hPa Calm     89% 0 mm 0 W/m2
05:59 8.2 °C 6.9 °C 1017.8 hPa Calm     89% 0 mm 0 W/m2
06:04 8.1 °C 6.9 °C 1017.8 hPa Calm     89% 0 mm 0 W/m2
06:09 7.9 °C 6.8 °C 1017.8 hPa Calm     89% 0 mm 0 W/m2
06:14 7.9 °C 6.7 °C 1017.8 hPa Calm     89% 0 mm 0 W/m2
06:19 7.8 °C 6.7 °C 1017.5 hPa ESE 0.6 km/h 3.2 km/h 89% 0 mm 0 W/m2
06:24 7.8 °C 6.8 °C 1017.5 hPa ESE 2.6 km/h 4.8 km/h 89.8% 0 mm 0 W/m2
06:29 7.9 °C 6.9 °C 1017.2 hPa ESE 3.1 km/h 9.7 km/h 90% 0 mm 0 W/m2
06:34 7.9 °C 6.9 °C 1017.2 hPa ESE 4.5 km/h 8 km/h 90% 0 mm 0 W/m2
06:38 8.1 °C 7.1 °C 1017.2 hPa ESE 3.2 km/h 8 km/h 90% 0 mm 0 W/m2
06:44 8.1 °C 7.1 °C 1017.2 hPa ESE 4.5 km/h 6.4 km/h 90% 0 mm 0 W/m2
06:49 8.1 °C 7.1 °C 1016.8 hPa ESE 4.5 km/h 9.7 km/h 90% 0 mm 0 W/m2
06:54 8.2 °C 7.2 °C 1016.8 hPa ESE 5.5 km/h 11.3 km/h 90% 0 mm 0 W/m2
06:59 8.2 °C 7.2 °C 1016.8 hPa SE 4.5 km/h 9.7 km/h 90% 0 mm 0 W/m2
07:04 8.2 °C 7.2 °C 1016.8 hPa ESE 5.5 km/h 9.7 km/h 90% 0 mm 0 W/m2
07:09 8.3 °C 7.2 °C 1016.5 hPa SE 4.5 km/h 9.7 km/h 90% 0 mm 0 W/m2
07:14 8.3 °C 7.2 °C 1016.5 hPa ESE 6.1 km/h 9.7 km/h 89.8% 0 mm 0 W/m2
07:19 8.3 °C 7.1 °C 1016.5 hPa ESE 4.7 km/h 11.3 km/h 89% 0 mm 0 W/m2
07:24 8.3 °C 7.2 °C 1016.5 hPa ESE 6.3 km/h 11.3 km/h 89% 0 mm 0 W/m2
07:29 8.4 °C 7.2 °C 1016.5 hPa ESE 6 km/h 11.3 km/h 89% 0 mm 0 W/m2
07:34 8.5 °C 7.3 °C 1016.5 hPa SE 6.4 km/h 11.3 km/h 89% 0 mm 0 W/m2
07:39 8.6 °C 7.4 °C 1016.5 hPa ESE 5.6 km/h 12.9 km/h 89% 0 mm 0 W/m2
07:44 8.7 °C 7.3 °C 1016.5 hPa SE 3.7 km/h 8 km/h 88.6% 0 mm 0 W/m2
07:49 8.7 °C 7.3 °C 1016.5 hPa SE 4.2 km/h 11.3 km/h 88% 0 mm 0 W/m2
07:54 8.7 °C 7.3 °C 1016.1 hPa ESE 5.5 km/h 11.3 km/h 88% 0 mm 0 W/m2
07:59 8.8 °C 7.4 °C 1016.1 hPa SE 4.3 km/h 9.7 km/h 88% 0 mm 5 W/m2
08:04 8.9 °C 7.5 °C 1016.5 hPa ESE 5.3 km/h 11.3 km/h 87.8% 0 mm 7 W/m2
08:09 9.1 °C 7.4 °C 1016.5 hPa SE 3.9 km/h 12.9 km/h 87% 0 mm 7 W/m2
08:14 9.2 °C 7.6 °C 1016.5 hPa ESE 5.1 km/h 12.9 km/h 87% 0 mm 9 W/m2
08:19 9.2 °C 7.7 °C 1016.5 hPa SE 4.3 km/h 11.3 km/h 87% 0 mm 12 W/m2
08:24 9.3 °C 7.7 °C 1016.1 hPa ESE 4.7 km/h 11.3 km/h 86.4% 0 mm 12 W/m2
08:29 9.4 °C 7.7 °C 1016.1 hPa ESE 4.7 km/h 11.3 km/h 86% 0 mm 14 W/m2
08:34 9.4 °C 7.7 °C 1016.1 hPa East 4.7 km/h 11.3 km/h 86% 0 mm 18 W/m2
08:39 9.5 °C 7.8 °C 1016.1 hPa ESE 3.7 km/h 8 km/h 86% 0 mm 21 W/m2
08:44 9.6 °C 7.7 °C 1016.1 hPa East 4.5 km/h 11.3 km/h 85.4% 0 mm 33 W/m2
08:49 9.6 °C 7.7 °C 1016.1 hPa SE 3.2 km/h 11.3 km/h 85% 0 mm 42 W/m2
08:54 9.6 °C 7.7 °C 1015.8 hPa East 7.2 km/h 12.9 km/h 85% 0 mm 49 W/m2
08:59 9.7 °C 7.8 °C 1015.8 hPa ESE 5.6 km/h 16.1 km/h 85% 0 mm 49 W/m2
09:04 9.8 °C 7.9 °C 1015.8 hPa ESE 5.1 km/h 16.1 km/h 85% 0 mm 47 W/m2
09:09 9.9 °C 7.9 °C 1015.8 hPa SE 4 km/h 12.9 km/h 84.8% 0 mm 54 W/m2
09:14 9.9 °C 7.8 °C 1016.1 hPa SSE 2.9 km/h 11.3 km/h 84% 0 mm 58 W/m2
09:19 10.1 °C 7.9 °C 1016.1 hPa SSE 3.2 km/h 9.7 km/h 84% 0 mm 40 W/m2
09:24 10.1 °C 8 °C 1016.1 hPa SSE 4.2 km/h 9.7 km/h 84% 0 mm 46 W/m2
09:29 10.2 °C 8.1 °C 1016.1 hPa South 7.4 km/h 14.5 km/h 84% 0 mm 56 W/m2
09:34 10.2 °C 8.2 °C 1015.8 hPa SSE 4.5 km/h 11.3 km/h 84% 0 mm 84 W/m2
09:39 10.3 °C 8.2 °C 1015.8 hPa ESE 6.4 km/h 17.7 km/h 84% 0 mm 125 W/m2
09:44 10.5 °C 8.4 °C 1015.5 hPa SE 5.8 km/h 16.1 km/h 84% 0 mm 141 W/m2
09:49 10.7 °C 8.5 °C 1015.5 hPa ESE 5.1 km/h 12.9 km/h 83.4% 0 mm 163 W/m2
09:54 10.8 °C 8.5 °C 1015.5 hPa SE 6.3 km/h 12.9 km/h 83% 0 mm 183 W/m2
09:59 11 °C 8.6 °C 1015.5 hPa SE 5 km/h 9.7 km/h 82.6% 0 mm 179 W/m2
10:04 11.2 °C 8.7 °C 1015.5 hPa SE 3.9 km/h 8 km/h 82% 0 mm 181 W/m2
10:09 11.3 °C 8.7 °C 1015.1 hPa SSE 6.6 km/h 11.3 km/h 81.6% 0 mm 209 W/m2
10:14 11.5 °C 8.9 °C 1015.1 hPa SE 3.5 km/h 11.3 km/h 81.5% 0 mm 218 W/m2
10:19 11.7 °C 9 °C 1015.1 hPa SE 9 km/h 12.9 km/h 81% 0 mm 218 W/m2
10:24 12 °C 9.1 °C 1015.1 hPa SSE 5.3 km/h 12.9 km/h 80% 0 mm 207 W/m2
10:29 12.2 °C 9.2 °C 1014.8 hPa SE 7.7 km/h 14.5 km/h 79.2% 0 mm 218 W/m2
10:34 12.4 °C 9.2 °C 1014.8 hPa SSE 9.5 km/h 14.5 km/h 78.2% 0 mm 243 W/m2
10:39 12.6 °C 9.2 °C 1014.8 hPa SSE 10.9 km/h 22.5 km/h 77.2% 0 mm 250 W/m2
10:44 12.7 °C 9.2 °C 1014.4 hPa SSE 7.4 km/h 17.7 km/h 76.6% 0 mm 260 W/m2
10:49 12.7 °C 9.1 °C 1014.4 hPa SE 12.2 km/h 22.5 km/h 76% 0 mm 260 W/m2
10:54 12.8 °C 9.2 °C 1014.4 hPa SE 10.3 km/h 19.3 km/h 76% 0 mm 281 W/m2
10:59 12.9 °C 9.2 °C 1014.4 hPa SSE 12.9 km/h 22.5 km/h 75.2% 0 mm 299 W/m2
11:04 13 °C 9.2 °C 1014.4 hPa SSE 11.9 km/h 24.1 km/h 75% 0 mm 313 W/m2
11:09 13.1 °C 9.1 °C 1014.4 hPa SSE 12.6 km/h 24.1 km/h 74% 0 mm 323 W/m2
11:14 13.3 °C 9 °C 1014.4 hPa South 15.1 km/h 25.7 km/h 73% 0 mm 329 W/m2
11:19 13.3 °C 8.8 °C 1014.1 hPa South 11.9 km/h 25.7 km/h 72% 0 mm 341 W/m2
11:24 13.6 °C 9 °C 1014.1 hPa South 10 km/h 20.9 km/h 71.5% 0 mm 345 W/m2
11:29 13.7 °C 8.9 °C 1013.8 hPa SSE 12.9 km/h 30.6 km/h 70.6% 0 mm 346 W/m2
11:34 13.8 °C 9 °C 1013.8 hPa South 15.1 km/h 33.8 km/h 70.6% 0 mm 355 W/m2
11:39 13.8 °C 8.8 °C 1013.8 hPa South 12.6 km/h 29 km/h 70% 0 mm 376 W/m2
11:44 13.9 °C 8.9 °C 1013.8 hPa SSE 9.5 km/h 30.6 km/h 69.6% 0 mm 373 W/m2
11:49 13.9 °C 8.8 °C 1013.4 hPa SSE 13.2 km/h 24.1 km/h 68.8% 0 mm 352 W/m2
11:54 14 °C 8.8 °C 1013.4 hPa SSE 11.9 km/h 27.4 km/h 68.6% 0 mm 355 W/m2
11:59 14.2 °C 8.7 °C 1013.4 hPa SSE 11.6 km/h 20.9 km/h 67.6% 0 mm 371 W/m2
12:04 14.2 °C 8.4 °C 1013.4 hPa SSE 13.8 km/h 29 km/h 66.4% 0 mm 387 W/m2
12:09 14.1 °C 9.1 °C 1013.4 hPa South 20.3 km/h 27.4 km/h 69.8% 0 mm 278 W/m2
12:14 13.9 °C 9 °C 1013.4 hPa South 14.2 km/h 27.4 km/h 70% 0 mm 179 W/m2
12:19 13.8 °C 8.8 °C 1013.4 hPa SSE 10.1 km/h 25.7 km/h 69.4% 0 mm 176 W/m2
12:23 13.9 °C 8.8 °C 1013.1 hPa SSE 10.5 km/h 24.1 km/h 69% 0 mm 223 W/m2
12:29 14.1 °C 8.7 °C 1013.1 hPa SSE 10.3 km/h 22.5 km/h 68% 0 mm 253 W/m2
12:34 14.1 °C 8.4 °C 1013.1 hPa SSE 11.3 km/h 19.3 km/h 66.4% 0 mm 295 W/m2
12:39 14.2 °C 8.2 °C 1013.1 hPa SSE 13.8 km/h 27.4 km/h 65.4% 0 mm 352 W/m2
12:44 14.1 °C 7.9 °C 1013.1 hPa SSE 16.4 km/h 30.6 km/h 64.2% 0 mm 373 W/m2
12:49 14.2 °C 8.1 °C 1013.1 hPa South 15.4 km/h 25.7 km/h 64.2% 0 mm 438 W/m2
12:54 14.4 °C 8.2 °C 1013.1 hPa SSE 16.1 km/h 29 km/h 64% 0 mm 480 W/m2
12:59 14.7 °C 8.2 °C 1012.8 hPa SSW 13.8 km/h 33.8 km/h 62.8% 0 mm 473 W/m2
13:04 14.8 °C 8.1 °C 1012.8 hPa South 14.8 km/h 30.6 km/h 61.8% 0 mm 480 W/m2
13:09 14.7 °C 7.9 °C 1012.8 hPa South 18 km/h 35.4 km/h 61.4% 0 mm 461 W/m2
13:14 14.7 °C 8.1 °C 1012.4 hPa South 14 km/h 29 km/h 62% 0 mm 439 W/m2
13:19 14.9 °C 8.1 °C 1012.4 hPa South 13.2 km/h 29 km/h 61.4% 0 mm 466 W/m2
13:24 14.8 °C 7.6 °C 1012.4 hPa South 22.5 km/h 32.2 km/h 59.8% 0 mm 476 W/m2
13:29 14.8 °C 7.7 °C 1012.1 hPa SSW 11.6 km/h 32.2 km/h 60.2% 0 mm 483 W/m2
13:34 14.9 °C 7.8 °C 1012.1 hPa South 19.2 km/h 30.6 km/h 60.6% 0 mm 489 W/m2
13:39 14.9 °C 7.6 °C 1011.7 hPa South 16.7 km/h 30.6 km/h 59.6% 0 mm 510 W/m2
13:44 15.1 °C 7.7 °C 1011.7 hPa South 16.7 km/h 27.4 km/h 59.2% 0 mm 519 W/m2
13:49 14.9 °C 7.8 °C 1011.7 hPa South 13.5 km/h 27.4 km/h 60.2% 0 mm 510 W/m2
13:54 15.1 °C 8.1 °C 1011.4 hPa SSE 16.4 km/h 29 km/h 61% 0 mm 413 W/m2
13:59 14.8 °C 7.8 °C 1011.7 hPa South 21.9 km/h 35.4 km/h 61.2% 0 mm 388 W/m2
14:04 14.6 °C 7.7 °C 1011.7 hPa South 24.5 km/h 35.4 km/h 61% 0 mm 454 W/m2
14:09 14.7 °C 7.7 °C 1011.4 hPa South 15.4 km/h 30.6 km/h 60.8% 0 mm 424 W/m2
14:14 14.7 °C 7.7 °C 1011.4 hPa South 17.4 km/h 29 km/h 61% 0 mm 422 W/m2
14:19 14.5 °C 7.8 °C 1011.4 hPa South 14 km/h 29 km/h 62.3% 0 mm 250 W/m2
14:24 14.4 °C 8 °C 1011.1 hPa SSE 12.9 km/h 24.1 km/h 63.6% 0 mm 216 W/m2
14:29 14.4 °C 8.1 °C 1011.1 hPa SSE 12.9 km/h 24.1 km/h 64% 0 mm 206 W/m2
14:34 14.2 °C 8.1 °C 1011.1 hPa SSE 14.2 km/h 25.7 km/h 64.2% 0 mm 211 W/m2
14:39 14.2 °C 8.3 °C 1010.7 hPa SSE 9.3 km/h 20.9 km/h 65.6% 0 mm 158 W/m2
14:44 14.2 °C 8.4 °C 1010.7 hPa SSE 7.6 km/h 25.7 km/h 66% 0 mm 155 W/m2
14:49 14.2 °C 8.4 °C 1010.7 hPa South 9.7 km/h 17.7 km/h 66% 0 mm 158 W/m2
14:54 14.1 °C 8.3 °C 1010.4 hPa SSE 10.9 km/h 17.7 km/h 66% 0 mm 167 W/m2
14:59 14 °C 8.2 °C 1010.4 hPa SSE 7.9 km/h 16.1 km/h 66% 0 mm 167 W/m2
15:04 13.9 °C 8.2 °C 1010.4 hPa SSE 9.2 km/h 17.7 km/h 66.8% 0 mm 148 W/m2
15:09 13.8 °C 8.6 °C 1010 hPa SSE 7.1 km/h 12.9 km/h 68% 0 mm 128 W/m2
15:14 13.8 °C 8.6 °C 1010 hPa South 10.3 km/h 14.5 km/h 68.6% 0 mm 137 W/m2
15:19 13.8 °C 8.8 °C 1010 hPa ESE 11.9 km/h 19.3 km/h 69.6% 0 mm 146 W/m2
15:24 13.7 °C 8.8 °C 1009.7 hPa SSE 7.1 km/h 17.7 km/h 70.2% 0 mm 148 W/m2
15:29 13.7 °C 9 °C 1010 hPa SSE 8.5 km/h 16.1 km/h 71% 0 mm 125 W/m2
15:34 13.7 °C 8.9 °C 1010 hPa SSE 10.1 km/h 14.5 km/h 71% 0 mm 127 W/m2
15:39 13.6 °C 8.9 °C 1009.7 hPa SSE 13.2 km/h 25.7 km/h 71% 0 mm 120 W/m2
15:44 13.6 °C 8.9 °C 1009.7 hPa SE 10.6 km/h 27.4 km/h 71% 0 mm 104 W/m2
15:49 13.6 °C 8.9 °C 1009.7 hPa SSE 8.9 km/h 22.5 km/h 71.4% 0 mm 84 W/m2
15:54 13.4 °C 8.9 °C 1009.4 hPa SSE 11.3 km/h 25.7 km/h 72% 0 mm 67 W/m2
15:59 13.4 °C 9 °C 1009.4 hPa SSE 9.2 km/h 19.3 km/h 72.6% 0 mm 62 W/m2
16:04 13.3 °C 9 °C 1009 hPa SSE 8.4 km/h 17.7 km/h 73% 0 mm 70 W/m2
16:09 13.3 °C 9.1 °C 1009 hPa SE 10 km/h 19.3 km/h 73.4% 0 mm 72 W/m2
16:14 13.3 °C 9.2 °C 1009 hPa SSE 10.6 km/h 24.1 km/h 74% 0 mm 70 W/m2
16:19 13.2 °C 9.1 °C 1008.7 hPa SSE 8.4 km/h 19.3 km/h 74% 0 mm 60 W/m2
16:24 13.2 °C 9.1 °C 1008.7 hPa SSE 11.3 km/h 25.7 km/h 74% 0 mm 58 W/m2
16:29 13.2 °C 9.1 °C 1008.4 hPa SSE 11.3 km/h 22.5 km/h 74% 0 mm 49 W/m2
16:34 13.1 °C 9.1 °C 1008.4 hPa SE 8.9 km/h 22.5 km/h 74% 0 mm 54 W/m2
16:39 13.1 °C 9.1 °C 1008.4 hPa SE 10.6 km/h 19.3 km/h 74% 0 mm 58 W/m2
16:44 13.1 °C 9.1 °C 1008.4 hPa SE 7.4 km/h 19.3 km/h 74% 0 mm 54 W/m2
16:49 13.1 °C 9.1 °C 1008.4 hPa SE 9 km/h 22.5 km/h 74% 0 mm 49 W/m2
16:54 13 °C 9.2 °C 1008 hPa SE 8.9 km/h 17.7 km/h 75% 0 mm 62 W/m2
16:59 13 °C 9.2 °C 1008 hPa SE 14.8 km/h 27.4 km/h 75% 0 mm 90 W/m2
17:04 12.9 °C 9.2 °C 1008 hPa SSE 11.3 km/h 22.5 km/h 75% 0 mm 100 W/m2
17:09 12.9 °C 9.1 °C 1007.7 hPa SSE 10.6 km/h 19.3 km/h 75% 0 mm 98 W/m2
17:14 12.9 °C 9.1 °C 1007.7 hPa SE 14.2 km/h 24.1 km/h 75% 0 mm 84 W/m2
17:19 12.9 °C 9.2 °C 1007.7 hPa SE 9.7 km/h 20.9 km/h 75.6% 0 mm 62 W/m2
17:24 12.8 °C 9.2 °C 1007.7 hPa SE 7.9 km/h 20.9 km/h 76% 0 mm 47 W/m2
17:29 12.8 °C 9.2 °C 1007.7 hPa SE 8.5 km/h 20.9 km/h 76% 0 mm 46 W/m2
17:34 12.8 °C 9.2 °C 1007.7 hPa SE 7.7 km/h 19.3 km/h 76% 0 mm 35 W/m2
17:39 12.8 °C 9.2 °C 1007.7 hPa ESE 11.6 km/h 19.3 km/h 76% 0 mm 30 W/m2
17:44 12.7 °C 9.1 °C 1007.3 hPa SE 10.9 km/h 25.7 km/h 76% 0 mm 23 W/m2
17:49 12.7 °C 9.1 °C 1007.3 hPa SE 9.2 km/h 22.5 km/h 76% 0 mm 12 W/m2
17:54 12.7 °C 9.1 °C 1007.3 hPa SE 9.5 km/h 22.5 km/h 76% 0 mm 11 W/m2
17:59 12.7 °C 9.1 °C 1007.3 hPa SSE 10.9 km/h 22.5 km/h 76% 0 mm 7 W/m2
18:04 12.7 °C 9.1 °C 1007.3 hPa SSE 8.7 km/h 27.4 km/h 76% 0 mm 0 W/m2
18:09 12.7 °C 9.1 °C 1007.3 hPa ESE 14.2 km/h 24.1 km/h 76% 0 mm 0 W/m2
18:14 12.7 °C 9.1 °C 1007 hPa South 9.3 km/h 22.5 km/h 76% 0 mm 0 W/m2
18:19 12.7 °C 9.1 °C 1007 hPa SE 12.9 km/h 20.9 km/h 76% 0 mm 0 W/m2
18:24 12.7 °C 9.1 °C 1007 hPa SSE 12.7 km/h 22.5 km/h 76% 0 mm 0 W/m2
18:29 12.7 °C 9.1 °C 1006.7 hPa SE 11.6 km/h 19.3 km/h 76% 0 mm 0 W/m2
18:34 12.7 °C 9.1 °C 1006.7 hPa SE 11.6 km/h 20.9 km/h 76% 0 mm 0 W/m2
18:39 12.7 °C 9.2 °C 1006.3 hPa SE 9 km/h 24.1 km/h 76.2% 0 mm 0 W/m2
18:44 12.6 °C 9.2 °C 1006.3 hPa SE 11.3 km/h 22.5 km/h 76.8% 0 mm 0 W/m2
18:49 12.6 °C 9.2 °C 1006.3 hPa SSE 8.4 km/h 22.5 km/h 77% 0 mm 0 W/m2
18:54 12.6 °C 9.2 °C 1006.3 hPa SE 16.7 km/h 30.6 km/h 77% 0 mm 0 W/m2
18:59 12.6 °C 9.2 °C 1006.3 hPa SE 14.2 km/h 25.7 km/h 77% 0 mm 0 W/m2
19:04 12.7 °C 9.2 °C 1006.3 hPa SSE 11.1 km/h 27.4 km/h 77% 0 mm 0 W/m2
19:09 12.6 °C 9.2 °C 1006.3 hPa SSE 13.2 km/h 20.9 km/h 77% 0 mm 0 W/m2
19:14 12.6 °C 9.2 °C 1006.3 hPa SE 13.8 km/h 35.4 km/h 77% 0 mm 0 W/m2
19:19 12.6 °C 9.2 °C 1006 hPa SE 10 km/h 25.7 km/h 77% 0 mm 0 W/m2
19:24 12.6 °C 9.2 °C 1005.6 hPa SE 7.2 km/h 20.9 km/h 77% 0 mm 0 W/m2
19:29 12.6 °C 9.2 °C 1006 hPa SSE 13.5 km/h 24.1 km/h 77% 0 mm 0 W/m2
19:34 12.7 °C 9.3 °C 1006 hPa SSE 16.4 km/h 30.6 km/h 77% 0 mm 0 W/m2
19:39 12.7 °C 9.3 °C 1005.6 hPa SE 10.9 km/h 20.9 km/h 77% 0 mm 0 W/m2
19:44 12.6 °C 9.2 °C 1005.6 hPa SE 10.9 km/h 27.4 km/h 77% 0 mm 0 W/m2
19:49 12.7 °C 9.2 °C 1005.6 hPa SE 9.7 km/h 22.5 km/h 77% 0 mm 0 W/m2
19:54 12.6 °C 9.2 °C 1005.6 hPa SE 10.6 km/h 20.9 km/h 77% 0 mm 0 W/m2
19:59 12.6 °C 9.2 °C 1005.6 hPa SSE 13.2 km/h 19.3 km/h 77% 0 mm 0 W/m2
20:04 12.6 °C 9.2 °C 1005.6 hPa SSE 16.1 km/h 30.6 km/h 77% 0 mm 0 W/m2
20:09 12.6 °C 9.2 °C 1005.6 hPa SE 13.5 km/h 30.6 km/h 77% 0 mm 0 W/m2
20:14 12.6 °C 9.2 °C 1005.3 hPa SE 15.4 km/h 25.7 km/h 77% 0 mm 0 W/m2
20:19 12.6 °C 9.2 °C 1005.6 hPa SE 12.2 km/h 27.4 km/h 77% 0 mm 0 W/m2
20:24 12.6 °C 9.2 °C 1005.3 hPa SSE 10.5 km/h 24.1 km/h 77% 0 mm 0 W/m2
20:29 12.5 °C 9.1 °C 1005 hPa SSE 10.9 km/h 22.5 km/h 77% 0 mm 0 W/m2
20:34 12.5 °C 9.1 °C 1005 hPa SSE 11.9 km/h 20.9 km/h 77% 0 mm 0 W/m2
20:39 12.5 °C 9.1 °C 1005 hPa SE 11.3 km/h 20.9 km/h 77% 0 mm 0 W/m2
20:44 12.5 °C 9.1 °C 1004.6 hPa SE 9 km/h 22.5 km/h 77% 0 mm 0 W/m2
20:49 12.5 °C 9.1 °C 1004.6 hPa SE 9.7 km/h 24.1 km/h 77% 0 mm 0 W/m2
20:54 12.5 °C 9.1 °C 1004.6 hPa SE 8.7 km/h 22.5 km/h 77% 0 mm 0 W/m2
20:59 12.6 °C 9.2 °C 1004.3 hPa ESE 11.9 km/h 20.9 km/h 77% 0 mm 0 W/m2
21:04 12.6 °C 9.2 °C 1004.3 hPa SSE 11.9 km/h 22.5 km/h 77% 0 mm 0 W/m2
21:09 12.6 °C 9.2 °C 1004.3 hPa SE 10.3 km/h 25.7 km/h 77% 0 mm 0 W/m2
21:14 12.6 °C 9.2 °C 1004.3 hPa SE 9.5 km/h 24.1 km/h 77% 0 mm 0 W/m2
21:19 12.6 °C 9.2 °C 1003.9 hPa SE 11.3 km/h 20.9 km/h 77% 0 mm 0 W/m2
21:23 12.6 °C 9.2 °C 1003.9 hPa SE 10 km/h 22.5 km/h 77% 0 mm 0 W/m2
21:29 12.5 °C 9.1 °C 1003.9 hPa SE 11.9 km/h 20.9 km/h 77% 0 mm 0 W/m2
21:34 12.6 °C 9.2 °C 1003.9 hPa SE 17.2 km/h 27.4 km/h 77% 0 mm 0 W/m2
21:39 12.6 °C 9.2 °C 1003.9 hPa SSE 11.9 km/h 27.4 km/h 77% 0 mm 0 W/m2
21:44 12.6 °C 9.2 °C 1003.6 hPa SE 8.7 km/h 22.5 km/h 77% 0 mm 0 W/m2
21:49 12.5 °C 9.1 °C 1003.6 hPa SSE 10 km/h 24.1 km/h 77% 0 mm 0 W/m2
21:54 12.6 °C 9.2 °C 1003.6 hPa SE 11.3 km/h 24.1 km/h 77% 0 mm 0 W/m2
21:59 12.6 °C 9.2 °C 1003.6 hPa SSE 10.9 km/h 24.1 km/h 77% 0 mm 0 W/m2
22:04 12.6 °C 9.2 °C 1003.6 hPa SE 11.9 km/h 24.1 km/h 77% 0 mm 0 W/m2
22:09 12.6 °C 9.2 °C 1003.6 hPa SE 10.5 km/h 24.1 km/h 77% 0 mm 0 W/m2
22:14 12.6 °C 9.2 °C 1003.6 hPa SSE 11.3 km/h 20.9 km/h 77% 0 mm 0 W/m2
23:49 12.7 °C 9.2 °C 1001.9 hPa SE 10.1 km/h 19.3 km/h 77% 0 mm 0 W/m2
23:54 12.6 °C 9.3 °C 1001.9 hPa SE 9 km/h 20.9 km/h 77.4% 0 mm 0 W/m2
23:59 12.6 °C 9.3 °C 1001.9 hPa SSE 10.3 km/h 17.7 km/h 77.4% 0 mm 0 W/m2
Bath Spa Weather
Compliments of Weather Underground - 2 mb